Time;durP1;ratioP1;P1;durP2;ratioP2;P2;SDS_P1;SDS_P2;PMS_P1;PMS_P2;Temp;Humidity;BMP_temperature;BMP_pressure;BME280_temperature;BME280_humidity;BME280_pressure;Samples;Min_cycle;Max_cycle;Signal;HPM_P1;HPM_P2
2022/02/04 00:01:15;;;;;;;;;;;;;;;21.30;45.90;100557.19;5082459;28;5290;-61
2022/02/04 00:04:33;;;;;;;;;;;;;;;21.29;46.02;100549.94;5077522;28;5267;-61
2022/02/04 00:06:38;;;;;;;;;;;;;;;21.30;45.86;100553.56;5071158;28;4163;-61
2022/02/04 00:22:41;;;;;;;;;;;;;;;21.28;45.77;100545.59;5080707;28;4149;-61
2022/02/04 00:25:17;;;;;;;;;;;;;;;21.28;45.71;100544.84;5082588;28;4057;-61
2022/02/04 00:27:44;;;;;;;;;;;;;;;21.27;45.88;100547.00;5084984;28;4224;-61
2022/02/04 00:30:21;;;;;;;;;;;;;;;21.28;45.98;100541.97;5082107;28;5235;-61
2022/02/04 00:32:50;;;;;;;;;;;;;;;21.27;46.03;100540.50;5080130;28;4225;-62
2022/02/04 00:35:46;;;;;;;;;;;;;;;21.28;45.95;100536.97;5084194;28;4195;-61
2022/02/04 00:40:42;;;;;;;;;;;;;;;21.27;46.13;100549.88;5084434;28;5280;-61
2022/02/04 00:43:12;;;;;;;;;;;;;;;21.26;46.11;100545.53;5082878;28;4148;-61
2022/02/04 00:48:42;;;;;;;;;;;;;;;21.27;46.05;100544.09;5080363;28;4170;-61
2022/02/04 00:51:20;;;;;;;;;;;;;;;21.25;46.00;100544.03;5079497;28;4355;-61
2022/02/04 00:53:55;;;;;;;;;;;;;;;21.26;45.90;100541.91;5083639;28;5364;-61
2022/02/04 00:56:39;;;;;;;;;;;;;;;21.25;46.05;100549.78;5061448;28;5433;-61
2022/02/04 01:26:20;;;;;;;;;;;;;;;21.25;45.80;100537.53;5079635;28;4138;-61
2022/02/04 01:28:47;;;;;;;;;;;;;;;21.27;46.02;100552.00;5084288;28;4090;-61
2022/02/04 01:31:18;;;;;;;;;;;;;;;21.28;45.90;100554.25;5082655;28;4550;-61
2022/02/04 01:33:45;;;;;;;;;;;;;;;21.29;45.84;100549.22;5080129;28;4101;-61
2022/02/04 01:36:12;;;;;;;;;;;;;;;21.28;45.72;100548.47;5083746;28;4178;-61
2022/02/04 01:38:38;;;;;;;;;;;;;;;21.26;46.32;100545.53;5085249;28;4496;-61
2022/02/04 01:41:04;;;;;;;;;;;;;;;21.25;46.29;100549.78;5084658;28;4374;-61
2022/02/04 01:43:31;;;;;;;;;;;;;;;21.25;46.34;100549.78;5083557;28;4243;-61
2022/02/04 01:45:59;;;;;;;;;;;;;;;21.23;46.32;100546.84;5081031;28;5205;-61
2022/02/04 01:48:25;;;;;;;;;;;;;;;21.24;46.34;100542.56;5079831;28;4003;-61
2022/02/04 01:50:51;;;;;;;;;;;;;;;21.25;46.30;100544.03;5077951;28;4122;-61
2022/02/04 01:53:19;;;;;;;;;;;;;;;21.26;46.30;100547.66;5084769;28;4156;-61
2022/02/04 01:55:45;;;;;;;;;;;;;;;21.24;46.02;100542.56;5081358;28;4212;-60
2022/02/04 01:58:12;;;;;;;;;;;;;;;21.24;46.14;100533.94;5082305;28;4008;-61
2022/02/04 02:00:38;;;;;;;;;;;;;;;21.20;46.14;100542.41;5079825;28;4166;-60
2022/02/04 02:03:05;;;;;;;;;;;;;;;21.17;46.26;100543.75;5084202;28;4203;-61
2022/02/04 02:05:31;;;;;;;;;;;;;;;21.17;46.25;100555.25;5064796;28;4751;-61
2022/02/04 02:08:04;;;;;;;;;;;;;;;21.22;46.33;100553.28;5085263;28;5150;-61
2022/02/04 02:10:31;;;;;;;;;;;;;;;21.22;46.02;100551.13;5082507;28;5584;-61
2022/02/04 02:13:16;;;;;;;;;;;;;;;21.21;46.20;100541.03;5082345;28;5230;-61
2022/02/04 02:43:09;;;;;;;;;;;;;;;21.21;46.13;100543.13;5083610;28;4197;-60
2022/02/04 02:59:09;;;;;;;;;;;;;;;21.19;46.42;100538.06;5087201;28;4408;-60
2022/02/04 03:01:31;;;;;;;;;;;;;;;21.21;46.38;100540.25;5066158;28;4267;-60
2022/02/04 03:04:03;;;;;;;;;;;;;;;21.20;46.22;100539.53;5065361;28;4211;-61
2022/02/04 03:06:29;;;;;;;;;;;;;;;21.19;46.37;100534.41;5068635;28;4204;-60
2022/02/04 03:08:55;;;;;;;;;;;;;;;21.20;46.13;100539.53;5065763;28;4416;-64
2022/02/04 03:11:21;;;;;;;;;;;;;;;21.19;46.15;100535.19;5078496;28;5369;-60
2022/02/04 03:13:48;;;;;;;;;;;;;;;21.19;46.02;100529.41;5069474;28;4024;-60
2022/02/04 03:16:17;;;;;;;;;;;;;;;21.18;46.11;100527.94;5067155;28;5362;-60
2022/02/04 03:18:47;;;;;;;;;;;;;;;21.19;46.15;100529.41;5080739;28;5246;-60
2022/02/04 03:21:17;;;;;;;;;;;;;;;21.18;46.23;100527.94;5086094;28;5259;-60
2022/02/04 03:23:49;;;;;;;;;;;;;;;21.19;46.28;100529.41;5086654;28;5306;-60
2022/02/04 03:26:27;;;;;;;;;;;;;;;21.19;46.39;100526.53;5086492;28;5477;-60
2022/02/04 03:28:54;;;;;;;;;;;;;;;21.20;46.18;100527.28;5084363;28;4327;-60
2022/02/04 03:31:20;;;;;;;;;;;;;;;21.21;46.28;100523.75;5085918;28;5189;-60
2022/02/04 03:33:48;;;;;;;;;;;;;;;21.21;46.33;100526.63;5083690;28;4110;-60
2022/02/04 03:36:14;;;;;;;;;;;;;;;21.22;46.28;100527.34;5083261;28;5233;-60
2022/02/04 03:38:40;;;;;;;;;;;;;;;21.21;46.23;100522.97;5086328;28;4174;-60
2022/02/04 03:41:07;;;;;;;;;;;;;;;21.21;46.00;100526.63;5085149;28;4510;-60
2022/02/04 03:43:34;;;;;;;;;;;;;;;21.21;46.06;100520.09;5079117;28;4120;-60
2022/02/04 03:46:00;;;;;;;;;;;;;;;21.19;45.90;100529.41;5086518;28;4188;-62
2022/02/04 03:48:26;;;;;;;;;;;;;;;21.19;45.99;100523.66;5084182;28;4188;-60
2022/02/04 03:50:53;;;;;;;;;;;;;;;21.20;46.16;100530.16;5083811;28;4031;-60
2022/02/04 03:53:19;;;;;;;;;;;;;;;21.20;46.06;100530.88;5083667;28;4142;-60
2022/02/04 03:55:45;;;;;;;;;;;;;;;21.19;45.97;100529.41;5088614;28;5399;-60
2022/02/04 03:58:12;;;;;;;;;;;;;;;21.21;45.94;100528.75;5083792;28;4155;-60
2022/02/04 04:00:38;;;;;;;;;;;;;;;21.21;46.13;100537.38;5080903;28;4144;-60
2022/02/04 04:03:05;;;;;;;;;;;;;;;21.20;46.12;100530.88;5083342;28;4166;-60
2022/02/04 04:05:32;;;;;;;;;;;;;;;21.21;46.20;100529.50;5081594;28;4192;-60
2022/02/04 04:07:58;;;;;;;;;;;;;;;21.21;46.14;100532.38;5080395;28;5400;-60
2022/02/04 04:10:27;;;;;;;;;;;;;;;21.21;45.99;100526.63;5085066;28;4134;-60
2022/02/04 04:12:57;;;;;;;;;;;;;;;21.21;46.07;100525.88;5083155;28;4166;-60
2022/02/04 04:15:24;;;;;;;;;;;;;;;21.20;46.02;100528.00;5085511;28;4195;-60
2022/02/04 04:17:51;;;;;;;;;;;;;;;21.21;46.07;100528.75;5080626;28;4045;-60
2022/02/04 04:20:18;;;;;;;;;;;;;;;21.20;45.85;100525.13;5082838;28;5429;-60
2022/02/04 04:22:45;;;;;;;;;;;;;;;21.19;45.96;100517.91;5084136;28;4218;-60
2022/02/04 04:25:11;;;;;;;;;;;;;;;21.19;45.87;100528.66;5081347;28;5219;-60
2022/02/04 04:27:38;;;;;;;;;;;;;;;21.18;45.85;100522.16;5082761;28;4069;-60
2022/02/04 04:30:05;;;;;;;;;;;;;;;21.18;46.01;100522.16;5082923;28;5305;-60
2022/02/04 04:32:32;;;;;;;;;;;;;;;21.18;45.74;100515.69;5082676;28;4222;-60
2022/02/04 04:34:58;;;;;;;;;;;;;;;21.17;46.00;100509.19;5080925;28;4190;-60
2022/02/04 04:37:25;;;;;;;;;;;;;;;21.18;45.75;100516.41;5080771;28;4148;-60
2022/02/04 04:42:31;;;;;;;;;;;;;;;21.17;45.85;100514.94;5084783;28;4130;-60
2022/02/04 05:26:31;;;;;;;;;;;;;;;21.19;45.86;100522.91;5074211;28;4223;-60
2022/02/04 05:29:10;;;;;;;;;;;;;;;21.17;46.06;100522.84;5080871;28;4176;-60
2022/02/04 05:31:36;;;;;;;;;;;;;;;21.17;45.95;100517.81;5082430;28;4235;-60
2022/02/04 05:34:03;;;;;;;;;;;;;;;21.18;46.03;100515.69;5082518;28;4227;-61
2022/02/04 05:36:30;;;;;;;;;;;;;;;21.18;45.98;100507.78;5079102;28;4193;-60
2022/02/04 05:38:56;;;;;;;;;;;;;;;21.19;45.93;100512.16;5080402;28;5337;-61
2022/02/04 05:41:30;;;;;;;;;;;;;;;21.20;45.77;100518.63;5082567;28;4180;-60
2022/02/04 05:43:59;;;;;;;;;;;;;;;21.20;46.04;100519.38;5079154;28;4193;-61
2022/02/04 05:46:30;;;;;;;;;;;;;;;21.21;45.96;100520.88;5082563;28;4196;-60
2022/02/04 05:48:58;;;;;;;;;;;;;;;21.20;46.06;100519.38;5083547;28;4347;-61
2022/02/04 05:51:43;;;;;;;;;;;;;;;21.20;46.03;100515.75;5077651;28;5320;-60
2022/02/04 05:54:25;;;;;;;;;;;;;;;21.20;45.94;100525.13;5080696;28;4148;-60
2022/02/04 05:57:05;;;;;;;;;;;;;;;21.19;45.72;100517.91;5082553;28;4184;-60
2022/02/04 05:59:56;;;;;;;;;;;;;;;21.19;45.89;100532.31;5082612;28;4027;-60
2022/02/04 06:02:36;;;;;;;;;;;;;;;21.19;45.93;100526.53;5080985;28;4181;-60
2022/02/04 06:05:22;;;;;;;;;;;;;;;21.19;45.89;100514.25;5082077;28;5225;-60
2022/02/04 06:11:08;;;;;;;;;;;;;;;21.19;45.81;100511.38;5080958;28;4130;-60
2022/02/04 06:22:18;;;;;;;;;;;;;;;21.18;45.69;100509.91;5080752;28;5466;-60
2022/02/04 06:24:47;;;;;;;;;;;;;;;21.19;45.47;100517.16;5080039;28;4148;-60
2022/02/04 06:27:14;;;;;;;;;;;;;;;21.20;45.50;100513.63;5078992;28;4134;-60
2022/02/04 06:29:40;;;;;;;;;;;;;;;21.19;45.75;100517.91;5078203;28;4206;-60
2022/02/04 06:32:07;;;;;;;;;;;;;;;21.20;45.75;100513.63;5085795;28;4283;-60
2022/02/04 06:34:33;;;;;;;;;;;;;;;21.21;45.76;100520.09;5063161;28;4219;-60
2022/02/04 06:36:59;;;;;;;;;;;;;;;21.19;45.60;100520.78;5081943;28;4223;-60
2022/02/04 06:39:26;;;;;;;;;;;;;;;21.19;45.75;100520.78;5084139;28;4434;-60
2022/02/04 06:41:52;;;;;;;;;;;;;;;21.19;45.92;100512.16;5078843;28;4310;-61
2022/02/04 06:44:21;;;;;;;;;;;;;;;21.26;46.13;100528.25;5066534;28;4167;-60
2022/02/04 06:46:48;;;;;;;;;;;;;;;21.27;46.12;100529.72;5081689;28;4155;-61
2022/02/04 06:49:14;;;;;;;;;;;;;;;21.26;46.01;100528.25;5075858;28;4216;-62
2022/02/04 06:51:41;;;;;;;;;;;;;;;21.27;46.02;100523.94;5082168;28;5288;-60
2022/02/04 06:54:07;;;;;;;;;;;;;;;21.32;46.41;100525.56;5081336;28;4193;-60
2022/02/04 06:56:35;;;;;;;;;;;;;;;21.25;45.92;100532.50;5085175;28;4077;-60
2022/02/04 06:59:02;;;;;;;;;;;;;;;21.22;46.00;100533.84;5086618;28;5275;-61
2022/02/04 07:01:30;;;;;;;;;;;;;;;21.21;45.95;100535.25;5085482;28;4150;-61
2022/02/04 07:03:56;;;;;;;;;;;;;;;21.21;45.84;100537.38;5085357;28;5207;-62
2022/02/04 07:06:23;;;;;;;;;;;;;;;21.20;45.95;100536.66;5081581;28;5304;-60
2022/02/04 07:11:40;;;;;;;;;;;;;;;21.19;46.08;100534.41;5083506;28;4215;-61
2022/02/04 07:14:25;;;;;;;;;;;;;;;21.16;46.13;100542.25;5086542;28;4335;-60
2022/02/04 07:17:12;;;;;;;;;;;;;;;21.17;45.86;100535.09;5086570;28;4231;-60
2022/02/04 07:19:50;;;;;;;;;;;;;;;21.16;46.06;100530.72;5080519;28;5232;-60
2022/02/04 07:22:20;;;;;;;;;;;;;;;21.15;45.95;100529.25;5086912;28;4140;-60
2022/02/04 07:24:47;;;;;;;;;;;;;;;21.15;45.61;100540.06;5085061;28;4183;-60
2022/02/04 07:27:13;;;;;;;;;;;;;;;21.13;46.44;100532.06;5078519;28;4202;-60
2022/02/04 07:29:42;;;;;;;;;;;;;;;21.18;45.90;100527.94;5083593;28;4279;-60
2022/02/04 07:32:15;;;;;;;;;;;;;;;21.21;46.17;100523.75;5080929;28;4957;-60
2022/02/04 07:40:53;;;;;;;;;;;;;;;21.30;45.66;100525.53;5014495;28;4126;-60
2022/02/04 07:43:02;;;;;;;;;;;;;;;21.33;45.69;100521.31;5063895;28;4232;-60
2022/02/04 07:45:29;;;;;;;;;;;;;;;21.36;45.83;100518.50;5085886;28;5284;-59
2022/02/04 07:47:56;;;;;;;;;;;;;;;21.36;45.66;100518.50;5085181;28;4111;-61
2022/02/04 07:50:22;;;;;;;;;;;;;;;21.36;45.83;100513.47;5084542;28;4187;-59
2022/02/04 07:52:49;;;;;;;;;;;;;;;21.38;45.54;100515.69;5084993;28;5227;-59
2022/02/04 07:55:15;;;;;;;;;;;;;;;21.37;45.41;100514.94;5085296;28;4039;-59
2022/02/04 07:57:42;;;;;;;;;;;;;;;21.38;45.71;100515.69;5083018;28;5294;-59
2022/02/04 08:00:09;;;;;;;;;;;;;;;21.39;45.58;100517.91;5082946;28;4121;-59
2022/02/04 08:02:40;;;;;;;;;;;;;;;21.39;45.55;100517.91;5086578;28;4165;-60
2022/02/04 08:05:08;;;;;;;;;;;;;;;21.40;45.64;100510.03;5085894;28;4210;-60
2022/02/04 08:08:01;;;;;;;;;;;;;;;21.42;45.61;100504.38;5084149;28;4525;-59
2022/02/04 08:10:31;;;;;;;;;;;;;;;21.43;45.79;100508.72;5082683;28;4347;-59
2022/02/04 08:21:23;;;;;;;;;;;;;;;21.47;45.59;100500.94;5084350;28;5431;-61
2022/02/04 08:29:08;;;;;;;;;;;;;;;21.49;45.81;100500.28;5083352;28;4236;-59
2022/02/04 08:31:49;;;;;;;;;;;;;;;21.48;45.73;100513.94;5083996;28;5449;-59
2022/02/04 08:34:33;;;;;;;;;;;;;;;21.47;45.48;100518.22;5074932;28;4234;-60
2022/02/04 08:47:47;;;;;;;;;;;;;;;21.48;44.79;100490.16;5076146;28;4111;-63
2022/02/04 08:50:31;;;;;;;;;;;;;;;21.53;44.90;100492.53;5075807;28;4207;-64
2022/02/04 08:53:09;;;;;;;;;;;;;;;21.56;44.96;100490.47;5077656;28;4198;-64
2022/02/04 08:55:45;;;;;;;;;;;;;;;21.61;44.77;100480.56;5079090;28;4194;-63
2022/02/04 09:01:03;;;;;;;;;;;;;;;21.69;44.76;100482.97;5077738;28;4211;-63
2022/02/04 09:03:48;;;;;;;;;;;;;;;21.71;44.69;100478.00;5068673;28;4257;-65
2022/02/04 09:06:18;;;;;;;;;;;;;;;21.67;44.78;100480.78;5070023;28;5306;-62
2022/02/04 09:08:52;;;;;;;;;;;;;;;21.66;44.78;100467.75;5061315;28;4219;-65
2022/02/04 09:19:22;;;;;;;;;;;;;;;21.75;44.83;100491.84;5060703;28;5205;-61
2022/02/04 09:22:06;;;;;;;;;;;;;;;21.72;44.59;100496.78;5058552;28;4058;-61
2022/02/04 09:24:32;;;;;;;;;;;;;;;21.65;44.65;100491.50;5067394;28;4178;-61
2022/02/04 09:26:58;;;;;;;;;;;;;;;21.60;44.55;100484.09;5059509;28;4137;-61
2022/02/04 09:29:25;;;;;;;;;;;;;;;21.61;44.67;100483.44;5047441;28;5430;-63
2022/02/04 09:31:52;;;;;;;;;;;;;;;21.63;44.68;100480.63;5078400;28;4758;-64
2022/02/04 09:34:18;;;;;;;;;;;;;;;21.66;44.77;100490.81;5083767;28;6133;-65
2022/02/04 09:36:44;;;;;;;;;;;;;;;21.69;44.70;100480.84;5080097;28;4217;-66
2022/02/04 09:39:11;;;;;;;;;;;;;;;21.70;44.90;100482.31;5079783;28;4211;-63
2022/02/04 09:41:37;;;;;;;;;;;;;;;21.72;45.09;100482.38;5074760;28;4318;-61
2022/02/04 09:44:04;;;;;;;;;;;;;;;21.73;44.70;100468.72;5078204;28;4447;-64
2022/02/04 09:46:36;;;;;;;;;;;;;;;21.71;44.62;100478.00;5077762;28;4066;-67
2022/02/04 09:49:02;;;;;;;;;;;;;;;21.71;44.92;100462.88;5080861;28;4277;-66
2022/02/04 09:51:48;;;;;;;;;;;;;;;21.69;44.74;100471.44;5076047;28;4130;-66
2022/02/04 10:06:47;;;;;;;;;;;;;;;21.74;45.07;100453.63;5083135;28;5505;-65
2022/02/04 10:09:18;;;;;;;;;;;;;;;21.75;44.89;100463.75;5081066;28;4195;-63
2022/02/04 10:17:07;;;;;;;;;;;;;;;21.97;45.16;100451.50;5080928;28;4252;-61
2022/02/04 10:19:48;;;;;;;;;;;;;;;22.03;44.60;100448.81;5076720;28;4198;-63
2022/02/04 10:22:26;;;;;;;;;;;;;;;22.03;44.66;100443.06;5077556;28;4387;-61
2022/02/04 10:24:53;;;;;;;;;;;;;;;22.03;44.78;100434.41;5079456;28;5491;-60
2022/02/04 10:27:20;;;;;;;;;;;;;;;22.07;44.37;100433.81;5075131;28;4172;-60
2022/02/04 10:30:12;;;;;;;;;;;;;;;22.08;44.65;100415.84;5073094;28;5236;-60
2022/02/04 10:32:40;;;;;;;;;;;;;;;22.13;44.61;100405.91;5072555;28;4199;-60
2022/02/04 10:35:21;;;;;;;;;;;;;;;22.20;44.34;100409.00;5075191;28;4204;-60
2022/02/04 10:37:55;;;;;;;;;;;;;;;22.22;43.96;100412.69;5083365;28;4135;-59
2022/02/04 10:40:29;;;;;;;;;;;;;;;22.18;43.93;100403.88;5074309;28;6183;-59
2022/02/04 10:43:14;;;;;;;;;;;;;;;22.17;44.12;100411.81;5078599;28;4104;-60
2022/02/04 10:45:52;;;;;;;;;;;;;;;22.18;43.89;100406.78;5081848;28;4170;-64
2022/02/04 10:48:47;;;;;;;;;;;;;;;21.92;44.10;100407.41;5079825;28;5164;-66
2022/02/04 10:54:35;;;;;;;;;;;;;;;21.74;44.38;100396.00;5080928;28;5360;-66
2022/02/04 11:02:22;;;;;;;;;;;;;;;21.93;44.86;100394.44;5077809;28;4621;-65
2022/02/04 11:05:05;;;;;;;;;;;;;;;21.95;44.61;100385.13;5081235;28;4063;-64
2022/02/04 11:08:01;;;;;;;;;;;;;;;21.95;44.51;100388.03;5080551;28;4053;-64
2022/02/04 11:10:40;;;;;;;;;;;;;;;22.12;44.28;100387.13;5061919;28;5171;-62
2022/02/04 11:33:03;;;;;;;;;;;;;;;21.92;44.10;100358.41;5059175;28;4152;-69
2022/02/04 11:35:29;;;;;;;;;;;;;;;21.91;44.05;100361.94;5072426;28;4213;-64
2022/02/04 11:43:47;;;;;;;;;;;;;;;21.93;44.39;100359.13;5066909;28;5283;-64
2022/02/04 11:50:28;;;;;;;;;;;;;;;21.95;44.27;100341.91;5053207;28;4166;-63
2022/02/04 11:55:00;;;;;;;;;;;;;;;22.03;43.87;100327.00;5075137;28;4209;-59
2022/02/04 11:57:34;;;;;;;;;;;;;;;22.12;43.78;100323.69;5085689;28;4230;-59
2022/02/04 12:00:02;;;;;;;;;;;;;;;22.16;43.92;100309.38;5074943;28;5410;-57
2022/02/04 12:02:30;;;;;;;;;;;;;;;22.14;43.91;100315.09;5077423;28;4225;-57
2022/02/04 12:05:08;;;;;;;;;;;;;;;22.09;43.79;100307.75;5070398;28;4102;-65
2022/02/04 12:07:39;;;;;;;;;;;;;;;22.11;43.74;100307.06;5075039;28;4219;-68
2022/02/04 12:10:11;;;;;;;;;;;;;;;22.13;44.04;100301.38;5074054;28;4286;-70
2022/02/04 12:12:53;;;;;;;;;;;;;;;22.22;44.00;100290.81;5084544;28;4226;-67
2022/02/04 12:15:28;;;;;;;;;;;;;;;22.22;44.06;100296.59;5083355;28;4173;-72
2022/02/04 12:17:55;;;;;;;;;;;;;;;22.23;44.15;100292.31;5083389;28;5489;-68
2022/02/04 12:20:40;;;;;;;;;;;;;;;22.22;43.81;100285.06;5075323;28;4196;-71
2022/02/04 12:23:06;;;;;;;;;;;;;;;22.22;43.96;100288.69;5076572;28;5063;-64
2022/02/04 12:25:52;;;;;;;;;;;;;;;22.26;44.19;100293.81;5082554;28;4219;-64
2022/02/04 12:28:37;;;;;;;;;;;;;;;22.24;44.27;100288.00;5082841;28;4506;-66
2022/02/04 12:31:09;;;;;;;;;;;;;;;22.25;43.99;100277.94;5075631;28;4207;-65
2022/02/04 12:33:40;;;;;;;;;;;;;;;22.21;44.05;100267.03;5079733;28;4234;-68
2022/02/04 12:36:13;;;;;;;;;;;;;;;22.21;44.16;100272.03;5082459;28;4098;-66
2022/02/04 12:38:39;;;;;;;;;;;;;;;22.24;44.18;100264.94;5066542;28;4113;-68
2022/02/04 12:41:05;;;;;;;;;;;;;;;22.22;44.37;100261.97;5069447;28;4134;-66
2022/02/04 12:43:37;;;;;;;;;;;;;;;22.24;44.84;100259.91;5080810;28;5409;-62
2022/02/04 12:46:05;;;;;;;;;;;;;;;22.25;44.38;100269.28;5079675;28;3990;-62
2022/02/04 12:48:31;;;;;;;;;;;;;;;22.23;44.60;100260.59;5056686;28;4043;-64
2022/02/04 12:50:58;;;;;;;;;;;;;;;22.27;45.33;100255.66;5077640;28;4083;-63
2022/02/04 12:53:26;;;;;;;;;;;;;;;22.29;45.70;100249.22;5081319;28;4140;-63
2022/02/04 12:56:02;;;;;;;;;;;;;;;22.28;45.89;100245.59;5083901;28;4309;-60
2022/02/04 13:07:31;;;;;;;;;;;;;;;22.32;45.81;100228.41;5079603;28;4044;-59
2022/02/04 13:07:38;;;;;;;;;;;;;;;22.31;46.05;100229.09;5078368;28;4249;-57
2022/02/04 13:10:25;;;;;;;;;;;;;;;22.33;46.06;100214.72;5063934;28;5502;-60
2022/02/04 13:12:53;;;;;;;;;;;;;;;22.35;46.50;100206.13;5077506;28;4218;-54
2022/02/04 13:15:19;;;;;;;;;;;;;;;22.36;46.05;100207.59;5079192;28;6239;-59
2022/02/04 13:17:46;;;;;;;;;;;;;;;22.34;45.94;100198.91;5077437;28;4286;-55
2022/02/04 13:20:12;;;;;;;;;;;;;;;22.31;46.05;100200.22;5074727;28;4207;-59
2022/02/04 13:22:38;;;;;;;;;;;;;;;22.34;46.00;100187.34;5081827;28;5278;-60
2022/02/04 13:25:12;;;;;;;;;;;;;;;22.29;45.71;100185.78;5081535;28;4249;-60
2022/02/04 13:27:38;;;;;;;;;;;;;;;22.28;45.59;100184.31;5081764;28;4217;-59
2022/02/04 13:30:19;;;;;;;;;;;;;;;22.24;45.15;100173.41;5055405;28;4185;-61
2022/02/04 13:32:45;;;;;;;;;;;;;;;22.29;44.95;100177.13;5081769;28;5440;-60
2022/02/04 13:35:35;;;;;;;;;;;;;;;22.27;44.64;100168.41;5068591;28;4210;-58
2022/02/04 13:38:05;;;;;;;;;;;;;;;22.27;44.19;100165.53;5080384;28;4933;-58
2022/02/04 13:40:41;;;;;;;;;;;;;;;22.27;44.42;100159.78;5076542;28;4118;-51
2022/02/04 13:43:20;;;;;;;;;;;;;;;22.31;44.40;100171.41;5077869;28;4615;-54
2022/02/04 13:45:54;;;;;;;;;;;;;;;22.40;44.11;100160.81;5072286;28;4051;-60
2022/02/04 13:48:35;;;;;;;;;;;;;;;22.40;43.33;100149.28;5072385;28;4125;-65
2022/02/04 13:51:13;;;;;;;;;;;;;;;22.26;43.63;100155.41;5074530;28;4415;-58
2022/02/04 13:54:00;;;;;;;;;;;;;;;22.21;43.77;100150.91;5078930;28;4197;-55
2022/02/04 13:56:40;;;;;;;;;;;;;;;22.27;43.00;100148.22;5080338;28;4173;-58
2022/02/04 13:59:16;;;;;;;;;;;;;;;22.31;42.77;100154.09;5078103;28;4355;-58
2022/02/04 14:01:53;;;;;;;;;;;;;;;22.30;42.53;100141.81;5072562;28;4767;-61
2022/02/04 14:04:20;;;;;;;;;;;;;;;22.32;42.39;100144.03;5079525;28;4622;-56
2022/02/04 14:06:46;;;;;;;;;;;;;;;22.30;42.48;100146.88;5072656;28;4007;-55
2022/02/04 14:09:19;;;;;;;;;;;;;;;22.28;41.90;100146.81;5061589;28;4027;-51
2022/02/04 14:11:46;;;;;;;;;;;;;;;22.22;42.08;100141.63;5075974;28;4188;-55
2022/02/04 14:14:19;;;;;;;;;;;;;;;22.23;42.40;100142.34;5082298;28;4072;-49
2022/02/04 14:17:01;;;;;;;;;;;;;;;22.20;42.32;100137.91;5075637;28;4419;-55
2022/02/04 14:19:28;;;;;;;;;;;;;;;22.21;42.73;100128.59;5079215;28;4157;-60
2022/02/04 14:21:54;;;;;;;;;;;;;;;22.26;43.39;100135.22;5075173;28;5127;-50
2022/02/04 14:24:22;;;;;;;;;;;;;;;22.27;43.66;100131.66;5080054;28;4308;-62
2022/02/04 14:26:52;;;;;;;;;;;;;;;22.30;43.74;100126.69;5081024;28;4240;-52
2022/02/04 14:29:24;;;;;;;;;;;;;;;22.31;43.89;100122.38;5076728;28;4187;-55
2022/02/04 14:32:04;;;;;;;;;;;;;;;22.40;44.43;100115.41;5074662;28;4244;-57
2022/02/04 14:51:15;;;;;;;;;;;;;;;22.45;45.01;100075.84;5065799;28;4187;-60
2022/02/04 15:01:49;;;;;;;;;;;;;;;22.31;44.67;100067.56;5074038;28;4540;-52
2022/02/04 15:04:25;;;;;;;;;;;;;;;22.34;44.91;100057.56;5076574;28;5295;-55
2022/02/04 15:06:59;;;;;;;;;;;;;;;22.34;44.98;100061.19;5079591;28;4593;-54
2022/02/04 15:09:25;;;;;;;;;;;;;;;22.33;44.90;100064.75;5079355;28;5359;-51
2022/02/04 15:11:51;;;;;;;;;;;;;;;22.37;44.85;100047.53;5074989;28;4168;-50
2022/02/04 15:14:19;;;;;;;;;;;;;;;22.41;44.71;100041.88;5077049;28;5400;-48
2022/02/04 15:16:46;;;;;;;;;;;;;;;22.36;44.73;100051.84;5078186;28;4136;-49
2022/02/04 15:19:12;;;;;;;;;;;;;;;22.35;44.55;100044.59;5083264;28;4194;-51
2022/02/04 15:21:41;;;;;;;;;;;;;;;22.18;46.15;100038.41;5080592;28;4246;-52
2022/02/04 15:24:09;;;;;;;;;;;;;;;22.30;45.31;100022.84;5079218;28;4515;-57
2022/02/04 15:26:36;;;;;;;;;;;;;;;22.37;44.79;100021.59;5079959;28;4115;-50
2022/02/04 15:29:06;;;;;;;;;;;;;;;22.43;45.54;100021.00;5078554;28;4188;-57
2022/02/04 15:31:49;;;;;;;;;;;;;;;22.46;45.21;100020.38;5078870;28;4475;-57
2022/02/04 15:34:16;;;;;;;;;;;;;;;22.38;44.36;100023.06;5072418;28;4691;-61
2022/02/04 15:36:45;;;;;;;;;;;;;;;22.35;44.75;100027.28;5079011;28;4241;-60
2022/02/04 15:39:15;;;;;;;;;;;;;;;22.35;44.65;100021.53;5079719;28;4240;-58
2022/02/04 15:41:47;;;;;;;;;;;;;;;22.35;44.49;100010.00;5073375;28;4115;-55
2022/02/04 15:44:34;;;;;;;;;;;;;;;22.41;44.66;100003.66;5079044;28;4307;-57
2022/02/04 15:50:01;;;;;;;;;;;;;;;22.38;45.06;100008.66;5074305;28;4130;-52
2022/02/04 15:52:49;;;;;;;;;;;;;;;22.40;44.85;99993.53;5075609;28;4216;-48
2022/02/04 15:58:11;;;;;;;;;;;;;;;22.37;44.93;99998.50;5077378;28;4185;-53
2022/02/04 16:03:40;;;;;;;;;;;;;;;22.38;44.51;99986.28;5074222;28;5401;-50
2022/02/04 16:06:09;;;;;;;;;;;;;;;22.32;44.57;99976.75;5071758;28;5209;-53
2022/02/04 16:08:35;;;;;;;;;;;;;;;22.28;44.90;99971.63;5077954;28;4132;-54
2022/02/04 16:13:42;;;;;;;;;;;;;;;22.25;44.48;99984.53;5076827;28;4397;-52
2022/02/04 16:18:55;;;;;;;;;;;;;;;22.36;44.58;99976.88;5075511;28;4184;-52
2022/02/04 16:21:29;;;;;;;;;;;;;;;22.35;44.00;99981.16;5078548;28;4106;-51
2022/02/04 16:26:57;;;;;;;;;;;;;;;22.34;44.16;99973.94;5062767;28;4154;-51
2022/02/04 16:29:23;;;;;;;;;;;;;;;22.40;43.82;99971.16;5072075;28;4338;-54
2022/02/04 16:31:50;;;;;;;;;;;;;;;22.48;44.15;99973.53;5078105;28;4491;-53
2022/02/04 16:34:16;;;;;;;;;;;;;;;22.51;44.23;99967.09;5082905;28;4249;-53
2022/02/04 16:37:01;;;;;;;;;;;;;;;22.53;44.36;99972.94;5071141;28;4256;-51
2022/02/04 16:39:29;;;;;;;;;;;;;;;22.49;44.40;99967.06;5071510;28;4178;-50
2022/02/04 16:42:10;;;;;;;;;;;;;;;22.53;44.44;99966.44;5072232;28;4380;-50
2022/02/04 16:44:37;;;;;;;;;;;;;;;22.50;44.49;99962.78;5071738;28;4270;-58
2022/02/04 16:47:04;;;;;;;;;;;;;;;22.47;44.16;99967.03;5077437;28;4343;-59
2022/02/04 16:49:30;;;;;;;;;;;;;;;22.47;44.64;99964.16;5071536;28;4218;-57
2022/02/04 16:51:57;;;;;;;;;;;;;;;22.46;44.50;99951.13;5077568;28;4172;-69
2022/02/04 16:54:23;;;;;;;;;;;;;;;22.42;44.19;99945.25;5059638;28;5330;-67
2022/02/04 16:56:50;;;;;;;;;;;;;;;22.47;44.36;99949.72;5077135;28;4207;-66
2022/02/04 16:59:17;;;;;;;;;;;;;;;22.47;44.68;99935.31;5068296;28;4139;-67
2022/02/04 17:01:43;;;;;;;;;;;;;;;22.45;44.30;99929.50;5073588;28;4261;-66
2022/02/04 17:04:11;;;;;;;;;;;;;;;22.40;44.25;99933.66;5075012;28;4207;-67
2022/02/04 17:06:41;;;;;;;;;;;;;;;22.45;43.93;99923.72;5077023;28;4209;-63
2022/02/04 17:09:21;;;;;;;;;;;;;;;22.48;43.71;99924.50;5074248;28;4500;-61
2022/02/04 17:11:49;;;;;;;;;;;;;;;22.41;43.50;99929.38;5076855;28;4056;-61
2022/02/04 17:14:15;;;;;;;;;;;;;;;22.43;43.80;99917.91;5082090;28;5255;-62
2022/02/04 17:16:42;;;;;;;;;;;;;;;22.36;44.06;99919.91;5080368;28;4091;-61
2022/02/04 17:19:10;;;;;;;;;;;;;;;22.35;44.28;99915.53;5080716;28;5538;-62
2022/02/04 17:21:37;;;;;;;;;;;;;;;22.34;44.29;99924.91;5068189;28;5286;-60
2022/02/04 17:24:04;;;;;;;;;;;;;;;22.34;44.26;99916.97;5060646;28;5212;-62
2022/02/04 17:26:30;;;;;;;;;;;;;;;22.37;44.24;99926.41;5073316;28;4256;-61
2022/02/04 17:28:56;;;;;;;;;;;;;;;22.36;44.10;99922.06;5076954;28;4209;-67
2022/02/04 17:31:23;;;;;;;;;;;;;;;22.37;44.13;99918.47;5072008;28;4048;-68
2022/02/04 17:33:49;;;;;;;;;;;;;;;22.42;43.87;99918.56;5048166;28;4035;-67
2022/02/04 17:36:16;;;;;;;;;;;;;;;22.42;43.88;99910.66;5059537;28;4555;-68
2022/02/04 17:38:43;;;;;;;;;;;;;;;22.46;43.58;99915.78;5076653;28;4207;-65
2022/02/04 17:41:10;;;;;;;;;;;;;;;22.46;43.49;99893.44;5068442;28;5618;-66
2022/02/04 17:43:36;;;;;;;;;;;;;;;22.48;43.77;99902.13;5068485;28;5227;-68
2022/02/04 17:46:04;;;;;;;;;;;;;;;22.29;43.90;99891.63;5067823;28;5625;-73
2022/02/04 17:48:55;;;;;;;;;;;;;;;22.22;43.94;99887.09;5073935;28;4304;-70
2022/02/04 17:53:55;;;;;;;;;;;;;;;22.13;44.14;99886.91;5073793;28;4207;-65
2022/02/04 17:56:36;;;;;;;;;;;;;;;22.06;44.34;99875.91;5073712;28;4044;-61
2022/02/04 17:59:20;;;;;;;;;;;;;;;22.09;44.38;99892.56;5076499;28;5586;-64
2022/02/04 18:02:11;;;;;;;;;;;;;;;22.07;44.23;99878.09;5081671;28;4880;-64
2022/02/04 18:07:24;;;;;;;;;;;;;;;22.08;44.57;99879.59;5078707;28;4162;-64